createdAt,value
2017-06-09T00:00:12.739Z,0
2017-06-09T00:01:12.769Z,0
2017-06-09T00:02:12.798Z,0
2017-06-09T00:03:13.101Z,0
2017-06-09T00:04:13.224Z,0
2017-06-09T00:05:12.901Z,0
2017-06-09T00:06:12.937Z,0
2017-06-09T00:07:12.981Z,0
2017-06-09T00:08:12.990Z,0
2017-06-09T00:09:13.046Z,0
2017-06-09T00:10:13.070Z,0
2017-06-09T00:11:13.110Z,0
2017-06-09T00:12:13.150Z,0
2017-06-09T00:13:13.185Z,0
2017-06-09T00:14:13.202Z,0
2017-06-09T00:15:13.254Z,0
2017-06-09T00:16:13.282Z,0
2017-06-09T00:17:13.407Z,0
2017-06-09T00:18:13.376Z,0
2017-06-09T00:19:13.462Z,0
2017-06-09T00:20:13.417Z,0
2017-06-09T00:21:13.460Z,0
2017-06-09T00:22:13.688Z,0
2017-06-09T00:23:13.519Z,0
2017-06-09T00:24:13.552Z,0
2017-06-09T00:25:13.574Z,0
2017-06-09T00:26:13.643Z,0
2017-06-09T00:27:13.661Z,0
2017-06-09T00:28:13.878Z,0
2017-06-09T00:29:13.724Z,0
2017-06-09T00:30:13.802Z,0
2017-06-09T00:31:13.796Z,0
2017-06-09T00:32:13.817Z,0
2017-06-09T00:33:13.862Z,0
2017-06-09T00:34:13.894Z,0
2017-06-09T00:35:13.907Z,0
2017-06-09T00:36:13.957Z,0
2017-06-09T00:37:13.992Z,0
2017-06-09T00:38:14.008Z,0
2017-06-09T00:39:14.077Z,0
2017-06-09T00:40:14.177Z,0
2017-06-09T00:41:14.125Z,0
2017-06-09T00:42:14.173Z,0
2017-06-09T00:43:14.209Z,0
2017-06-09T00:44:14.298Z,0
2017-06-09T00:45:14.265Z,0
2017-06-09T00:46:14.312Z,0
2017-06-09T00:47:14.319Z,0
2017-06-09T00:48:14.369Z,0
2017-06-09T00:49:14.508Z,0
2017-06-09T00:50:14.407Z,0
2017-06-09T00:51:14.468Z,0
2017-06-09T00:52:14.508Z,0
2017-06-09T00:53:14.501Z,0
2017-06-09T00:54:14.671Z,0
2017-06-09T00:55:14.704Z,0
2017-06-09T00:56:14.638Z,0
2017-06-09T00:57:14.670Z,0
2017-06-09T00:58:14.704Z,0
2017-06-09T00:59:14.740Z,0
2017-06-09T01:00:14.769Z,0
2017-06-09T01:01:14.809Z,0
2017-06-09T01:02:14.837Z,0
2017-06-09T01:03:14.877Z,0
2017-06-09T01:04:14.956Z,0
2017-06-09T01:05:14.969Z,0
2017-06-09T01:06:15.003Z,0
2017-06-09T01:07:15.209Z,0
2017-06-09T01:08:15.045Z,0
2017-06-09T01:09:15.072Z,0
2017-06-09T01:10:15.109Z,0
2017-06-09T01:11:15.138Z,0
2017-06-09T01:12:15.175Z,0
2017-06-09T01:13:15.193Z,0
2017-06-09T01:14:15.236Z,0
2017-06-09T01:15:15.256Z,0
2017-06-09T01:16:15.322Z,0
2017-06-09T01:17:15.343Z,0
2017-06-09T01:18:15.373Z,0
2017-06-09T01:19:15.415Z,0
2017-06-09T01:20:15.425Z,0
2017-06-09T01:21:15.475Z,0
2017-06-09T01:22:15.512Z,0
2017-06-09T01:23:15.522Z,0
2017-06-09T01:24:15.574Z,0
2017-06-09T01:25:15.699Z,0
2017-06-09T01:26:15.628Z,0
2017-06-09T01:27:15.677Z,0
2017-06-09T01:28:16.130Z,0
2017-06-09T01:29:15.742Z,0
2017-06-09T01:30:15.872Z,0
2017-06-09T01:31:15.811Z,0
2017-06-09T01:32:15.838Z,0
2017-06-09T01:33:15.859Z,0
2017-06-09T01:34:15.906Z,0
2017-06-09T01:35:16.040Z,0
2017-06-09T01:36:15.986Z,0
2017-06-09T01:37:16.017Z,0
2017-06-09T01:38:16.010Z,0
2017-06-09T01:39:16.075Z,0
2017-06-09T01:40:16.422Z,0
2017-06-09T01:41:16.144Z,0
2017-06-09T01:42:16.155Z,0
2017-06-09T01:43:16.209Z,0
2017-06-09T01:44:16.244Z,0
2017-06-09T01:45:16.260Z,0
2017-06-09T01:46:16.354Z,0
2017-06-09T01:47:16.340Z,0
2017-06-09T01:48:16.376Z,0
2017-06-09T01:49:16.410Z,0
2017-06-09T01:50:16.442Z,0
2017-06-09T01:51:16.477Z,0
2017-06-09T01:52:16.515Z,0
2017-06-09T01:53:16.567Z,0
2017-06-09T01:54:16.572Z,0
2017-06-09T01:55:16.614Z,0
2017-06-09T01:56:16.648Z,0
2017-06-09T01:57:16.691Z,0
2017-06-09T01:58:16.705Z,0
2017-06-09T01:59:16.724Z,0
2017-06-09T02:00:16.770Z,0
2017-06-09T02:01:16.789Z,0
2017-06-09T02:02:16.856Z,0
2017-06-09T02:03:16.865Z,0
2017-06-09T02:04:16.939Z,0
2017-06-09T02:05:16.960Z,0
2017-06-09T02:06:16.922Z,4
2017-06-09T02:07:17.044Z,4
2017-06-09T02:08:17.038Z,4
2017-06-09T02:09:17.075Z,4
2017-06-09T02:10:17.117Z,0
2017-06-09T02:11:17.119Z,4
2017-06-09T02:12:17.164Z,4
2017-06-09T02:13:17.212Z,4
2017-06-09T02:14:17.362Z,4
2017-06-09T02:15:17.272Z,4
2017-06-09T02:16:17.405Z,8
2017-06-09T02:17:17.342Z,8
2017-06-09T02:18:17.424Z,8
2017-06-09T02:19:17.407Z,8
2017-06-09T02:20:17.421Z,8
2017-06-09T02:21:17.471Z,8
2017-06-09T02:22:17.516Z,12
2017-06-09T02:23:17.508Z,16
2017-06-09T02:24:17.546Z,12
2017-06-09T02:25:17.762Z,16
2017-06-09T02:26:17.638Z,20
2017-06-09T02:27:17.658Z,20
2017-06-09T02:28:17.696Z,24
2017-06-09T02:29:17.774Z,24
2017-06-09T02:30:17.791Z,32
2017-06-09T02:31:17.810Z,32
2017-06-09T02:32:17.837Z,36
2017-06-09T02:33:17.876Z,44
2017-06-09T02:34:17.910Z,48
2017-06-09T02:35:17.940Z,52
2017-06-09T02:36:17.970Z,60
2017-06-09T02:37:18.013Z,68
2017-06-09T02:38:18.042Z,76
2017-06-09T02:39:18.109Z,84
2017-06-09T02:40:18.110Z,88
2017-06-09T02:41:18.141Z,96
2017-06-09T02:42:18.171Z,100
2017-06-09T02:43:18.190Z,108
2017-06-09T02:44:18.232Z,116
2017-06-09T02:45:18.272Z,116
2017-06-09T02:46:18.289Z,124
2017-06-09T02:47:18.320Z,136
2017-06-09T02:48:18.367Z,144
2017-06-09T02:49:18.405Z,160
2017-06-09T02:50:18.435Z,172
2017-06-09T02:51:18.460Z,184
2017-06-09T02:52:18.504Z,200
2017-06-09T02:53:18.629Z,220
2017-06-09T02:54:18.546Z,240
2017-06-09T02:55:18.567Z,256
2017-06-09T02:56:18.753Z,276
2017-06-09T02:57:18.661Z,292
2017-06-09T02:58:18.673Z,312
2017-06-09T02:59:18.792Z,332
2017-06-09T03:00:18.870Z,356
2017-06-09T03:01:18.796Z,384
2017-06-09T03:02:18.916Z,416
2017-06-09T03:03:18.867Z,448
2017-06-09T03:04:18.894Z,476
2017-06-09T03:05:18.918Z,496
2017-06-09T03:06:18.967Z,516
2017-06-09T03:07:18.993Z,528
2017-06-09T03:08:18.998Z,548
2017-06-09T03:09:19.061Z,568
2017-06-09T03:10:19.068Z,592
2017-06-09T03:11:19.237Z,612
2017-06-09T03:12:19.168Z,632
2017-06-09T03:13:19.171Z,648
2017-06-09T03:14:19.217Z,668
2017-06-09T03:15:19.236Z,692
2017-06-09T03:16:19.294Z,720
2017-06-09T03:17:19.303Z,756
2017-06-09T03:18:19.338Z,784
2017-06-09T03:19:19.396Z,812
2017-06-09T03:20:19.397Z,832
2017-06-09T03:21:19.435Z,848
2017-06-09T03:22:19.488Z,856
2017-06-09T03:23:19.522Z,860
2017-06-09T03:24:19.531Z,860
2017-06-09T03:25:19.592Z,856
2017-06-09T03:26:19.611Z,860
2017-06-09T03:27:19.657Z,864
2017-06-09T03:28:19.690Z,872
2017-06-09T03:29:19.721Z,880
2017-06-09T03:30:19.737Z,876
2017-06-09T03:31:19.768Z,860
2017-06-09T03:32:19.819Z,844
2017-06-09T03:33:19.835Z,832
2017-06-09T03:34:19.888Z,828
2017-06-09T03:35:19.913Z,820
2017-06-09T03:36:20.012Z,820
2017-06-09T03:37:19.960Z,824
2017-06-09T03:38:19.995Z,824
2017-06-09T03:39:20.027Z,824
2017-06-09T03:40:20.093Z,824
2017-06-09T03:41:20.118Z,824
2017-06-09T03:42:20.137Z,832
2017-06-09T03:43:20.192Z,856
2017-06-09T03:44:20.203Z,884
2017-06-09T03:45:20.232Z,916
2017-06-09T03:46:20.277Z,956
2017-06-09T03:47:20.322Z,992
2017-06-09T03:48:20.370Z,1036
2017-06-09T03:49:20.386Z,1084
2017-06-09T03:50:20.412Z,1132
2017-06-09T03:51:20.440Z,1180
2017-06-09T03:52:20.488Z,1232
2017-06-09T03:53:20.505Z,1284
2017-06-09T03:54:20.535Z,1332
2017-06-09T03:55:20.641Z,1384
2017-06-09T03:56:20.651Z,1420
2017-06-09T03:57:20.623Z,1448
2017-06-09T03:58:20.669Z,1476
2017-06-09T03:59:20.710Z,1508
2017-06-09T04:00:20.804Z,1556
2017-06-09T04:01:20.804Z,1600
2017-06-09T04:02:20.874Z,1644
2017-06-09T04:03:20.865Z,1676
2017-06-09T04:04:20.953Z,1712
2017-06-09T04:05:20.977Z,1772
2017-06-09T04:06:21.020Z,1836
2017-06-09T04:07:21.027Z,1912
2017-06-09T04:08:21.027Z,1996
2017-06-09T04:09:21.104Z,2144
2017-06-09T04:10:21.150Z,2476
2017-06-09T04:11:21.141Z,3168
2017-06-09T04:12:21.165Z,4172
2017-06-09T04:13:21.238Z,5232
2017-06-09T04:14:21.255Z,5360
2017-06-09T04:15:21.284Z,4784
2017-06-09T04:16:21.309Z,4848
2017-06-09T04:17:21.373Z,4920
2017-06-09T04:18:21.410Z,4932
2017-06-09T04:19:21.396Z,4712
2017-06-09T04:20:21.475Z,4768
2017-06-09T04:21:21.522Z,5640
2017-06-09T04:22:21.574Z,7228
2017-06-09T04:23:21.562Z,7652
2017-06-09T04:24:21.655Z,8100
2017-06-09T04:25:21.656Z,8216
2017-06-09T04:26:21.681Z,7740
2017-06-09T04:27:21.685Z,6404
2017-06-09T04:28:21.743Z,5148
2017-06-09T04:29:21.754Z,4088
2017-06-09T04:30:21.795Z,3660
2017-06-09T04:31:21.876Z,3388
2017-06-09T04:32:21.882Z,3312
2017-06-09T04:33:21.899Z,3508
2017-06-09T04:34:21.960Z,3892
2017-06-09T04:35:22.063Z,3960
2017-06-09T04:36:22.029Z,4088
2017-06-09T04:37:22.041Z,4316
2017-06-09T04:38:22.089Z,4300
2017-06-09T04:39:22.108Z,4508
2017-06-09T04:40:22.181Z,4904
2017-06-09T04:41:22.192Z,5532
2017-06-09T04:42:22.286Z,5668
2017-06-09T04:43:22.274Z,5392
2017-06-09T04:44:22.296Z,5276
2017-06-09T04:45:22.357Z,4944
2017-06-09T04:46:22.359Z,4584
2017-06-09T04:47:22.417Z,4420
2017-06-09T04:48:22.495Z,4468
2017-06-09T04:49:22.490Z,4392
2017-06-09T04:50:22.589Z,4624
2017-06-09T04:51:22.585Z,4532
2017-06-09T04:52:22.585Z,4596
2017-06-09T04:53:22.690Z,4840
2017-06-09T04:54:22.661Z,4932
2017-06-09T04:55:22.990Z,4748
2017-06-09T04:56:22.729Z,5088
2017-06-09T04:57:22.801Z,5432
2017-06-09T04:58:22.804Z,5208
2017-06-09T04:59:22.876Z,5272
2017-06-09T05:00:23.146Z,5356
2017-06-09T05:01:22.915Z,5360
2017-06-09T05:02:22.995Z,5420
2017-06-09T05:03:23.002Z,5700
2017-06-09T05:04:23.049Z,5668
2017-06-09T05:05:23.189Z,6296
2017-06-09T05:06:23.130Z,9048
2017-06-09T05:07:23.137Z,7608
2017-06-09T05:08:23.196Z,5748
2017-06-09T05:09:23.242Z,6196
2017-06-09T05:10:23.429Z,6992
2017-06-09T05:11:23.314Z,8848
2017-06-09T05:12:23.388Z,11528
2017-06-09T05:13:23.367Z,10076
2017-06-09T05:14:23.435Z,13868
2017-06-09T05:15:23.435Z,8540
2017-06-09T05:16:23.479Z,5760
2017-06-09T05:17:23.548Z,5328
2017-06-09T05:18:23.577Z,5220
2017-06-09T05:19:23.603Z,5144
2017-06-09T05:20:23.649Z,5220
2017-06-09T05:21:23.710Z,5268
2017-06-09T05:22:23.708Z,4972
2017-06-09T05:23:23.725Z,5388
2017-06-09T05:24:23.762Z,5232
2017-06-09T05:25:23.789Z,5600
2017-06-09T05:26:23.876Z,5676
2017-06-09T05:27:23.854Z,7392
2017-06-09T05:28:23.928Z,9464
2017-06-09T05:29:23.953Z,7936
2017-06-09T05:30:23.977Z,10160
2017-06-09T05:31:24.092Z,14568
2017-06-09T05:32:24.090Z,16864
2017-06-09T05:33:24.104Z,11596
2017-06-09T05:34:24.183Z,9028
2017-06-09T05:35:24.170Z,6708
2017-06-09T05:36:24.293Z,6192
2017-06-09T05:37:24.252Z,5860
2017-06-09T05:38:24.309Z,5548
2017-06-09T05:39:24.324Z,5212
2017-06-09T05:40:24.389Z,5860
2017-06-09T05:41:24.423Z,7572
2017-06-09T05:42:24.417Z,9660
2017-06-09T05:43:24.498Z,8652
2017-06-09T05:44:24.604Z,6452
2017-06-09T05:45:24.538Z,5912
2017-06-09T05:46:24.591Z,6368
2017-06-09T05:47:24.655Z,5380
2017-06-09T05:48:24.692Z,5472
2017-06-09T05:49:24.705Z,5688
2017-06-09T05:50:24.732Z,4940
2017-06-09T05:51:24.789Z,5468
2017-06-09T05:52:24.792Z,5568
2017-06-09T05:53:24.858Z,7256
2017-06-09T05:54:24.855Z,8912
2017-06-09T05:55:24.916Z,11012
2017-06-09T05:56:24.957Z,16288
2017-06-09T05:57:24.977Z,10116
2017-06-09T05:58:25.032Z,7072
2017-06-09T05:59:25.054Z,8652
2017-06-09T06:00:25.134Z,13224
2017-06-09T06:01:25.169Z,10124
2017-06-09T06:02:25.199Z,9208
2017-06-09T06:03:25.251Z,8080
2017-06-09T06:04:25.307Z,12620
2017-06-09T06:05:25.490Z,10484
2017-06-09T06:06:25.357Z,8924
2017-06-09T06:07:25.389Z,9900
2017-06-09T06:08:25.452Z,11276
2017-06-09T06:09:25.477Z,21888
2017-06-09T06:10:25.469Z,26880
2017-06-09T06:11:25.553Z,15072
2017-06-09T06:12:25.597Z,14052
2017-06-09T06:13:25.585Z,18112
2017-06-09T06:14:25.620Z,17760
2017-06-09T06:15:25.743Z,26592
2017-06-09T06:16:25.767Z,27648
2017-06-09T06:17:25.732Z,26688
2017-06-09T06:18:25.767Z,27360
2017-06-09T06:19:25.881Z,28320
2017-06-09T06:20:25.882Z,20512
2017-06-09T06:21:25.898Z,25984
2017-06-09T06:22:25.979Z,28224
2017-06-09T06:23:25.978Z,29568
2017-06-09T06:24:26.129Z,27872
2017-06-09T06:25:26.100Z,30368
2017-06-09T06:26:26.126Z,32384
2017-06-09T06:27:26.199Z,26336
2017-06-09T06:28:26.206Z,26144
2017-06-09T06:29:26.276Z,25408
2017-06-09T06:30:26.326Z,30464
2017-06-09T06:31:26.320Z,28640
2017-06-09T06:32:26.377Z,24704
2017-06-09T06:33:26.413Z,21408
2017-06-09T06:34:10.439Z,17536
2017-06-09T06:35:10.505Z,14080
2017-06-09T06:36:10.502Z,11784
2017-06-09T06:37:10.555Z,12808
2017-06-09T06:38:10.577Z,12340
2017-06-09T06:39:10.653Z,10836
2017-06-09T06:40:10.707Z,11096
2017-06-09T06:41:10.720Z,10692
2017-06-09T06:42:10.736Z,9600
2017-06-09T06:43:10.787Z,10628
2017-06-09T06:44:10.852Z,10352
2017-06-09T06:45:10.889Z,9980
2017-06-09T06:46:10.924Z,9288
2017-06-09T06:47:10.956Z,10080
2017-06-09T06:48:11.002Z,10324
2017-06-09T06:49:11.051Z,10596
2017-06-09T06:50:11.100Z,11048
2017-06-09T06:51:11.144Z,12080
2017-06-09T06:52:11.190Z,12736
2017-06-09T06:53:11.209Z,12616
2017-06-09T06:54:11.259Z,12632
2017-06-09T06:55:11.300Z,12516
2017-06-09T06:56:11.350Z,11660
2017-06-09T06:57:11.400Z,9972
2017-06-09T06:58:11.456Z,10808
2017-06-09T06:59:11.451Z,12180
2017-06-09T07:00:11.527Z,11568
2017-06-09T07:01:11.558Z,13460
2017-06-09T07:02:11.603Z,14432
2017-06-09T07:03:11.652Z,13800
2017-06-09T07:04:11.673Z,13152
2017-06-09T07:05:11.738Z,12696
2017-06-09T07:06:11.769Z,12504
2017-06-09T07:07:11.822Z,11852
2017-06-09T07:08:11.859Z,12080
2017-06-09T07:09:11.893Z,12164
2017-06-09T07:10:11.943Z,11384
2017-06-09T07:11:11.992Z,11388
2017-06-09T07:12:12.050Z,11672
2017-06-09T07:13:12.078Z,11748
2017-06-09T07:14:12.099Z,11412
2017-06-09T07:15:12.187Z,10648
2017-06-09T07:16:12.196Z,11492
2017-06-09T07:17:12.243Z,10976
2017-06-09T07:18:12.291Z,11708
2017-06-09T07:19:12.351Z,12008
2017-06-09T07:20:12.398Z,12076
2017-06-09T07:21:14.144Z,12112
2017-06-09T07:22:12.523Z,11784
2017-06-09T07:23:12.513Z,11344
2017-06-09T07:24:12.571Z,11900
2017-06-09T07:25:12.623Z,11728
2017-06-09T07:26:12.657Z,12252
2017-06-09T07:27:12.703Z,11836
2017-06-09T07:28:12.770Z,12032
2017-06-09T07:29:12.780Z,12272
2017-06-09T07:30:12.837Z,12252
2017-06-09T07:31:12.896Z,12016
2017-06-09T07:32:12.930Z,11940
2017-06-09T07:33:12.987Z,11692
2017-06-09T07:34:13.022Z,12192
2017-06-09T07:35:13.053Z,12172
2017-06-09T07:36:13.112Z,12432
2017-06-09T07:37:13.150Z,12576
2017-06-09T07:38:13.398Z,12996
2017-06-09T07:39:13.230Z,13824
2017-06-09T07:40:13.262Z,13204
2017-06-09T07:41:13.340Z,15072
2017-06-09T07:42:13.350Z,17632
2017-06-09T07:43:13.404Z,21696
2017-06-09T07:44:13.473Z,22304
2017-06-09T07:45:13.514Z,24160
2017-06-09T07:46:13.551Z,27520
2017-06-09T07:47:13.654Z,27936
2017-06-09T07:48:13.661Z,28256
2017-06-09T07:49:13.687Z,29184
2017-06-09T07:50:13.778Z,32672
2017-06-09T07:51:13.791Z,38368
2017-06-09T07:52:13.849Z,41792
2017-06-09T07:53:13.880Z,45536
2017-06-09T07:54:13.958Z,48128
2017-06-09T07:55:13.950Z,46944
2017-06-09T07:56:14.028Z,50208
2017-06-09T07:57:14.113Z,52928
2017-06-09T07:58:14.131Z,53984
2017-06-09T07:59:14.142Z,58432
2017-06-09T08:00:14.216Z,59808
2017-06-09T08:01:14.262Z,56032
2017-06-09T08:02:14.287Z,52416
2017-06-09T08:03:14.339Z,50912
2017-06-09T08:04:14.402Z,56608
2017-06-09T08:05:14.442Z,61952
2017-06-09T08:06:14.499Z,62048
2017-06-09T08:07:14.551Z,58112
2017-06-09T08:08:14.582Z,54560
2017-06-09T08:09:14.637Z,47936
2017-06-09T08:10:14.668Z,39584
2017-06-09T08:11:14.730Z,37632
2017-06-09T08:12:14.782Z,43904
2017-06-09T08:13:14.833Z,49248
2017-06-09T08:14:14.857Z,46752
2017-06-09T08:15:14.917Z,43040
2017-06-09T08:16:14.959Z,46592
2017-06-09T08:17:15.023Z,55744
2017-06-09T08:18:15.070Z,57792
2017-06-09T08:19:15.101Z,56768
2017-06-09T08:20:15.163Z,52512
2017-06-09T08:21:15.188Z,48512
2017-06-09T08:22:15.260Z,45792
2017-06-09T08:23:15.285Z,44832
2017-06-09T08:24:15.352Z,40352
2017-06-09T08:25:15.415Z,40992
2017-06-09T08:26:15.452Z,41824
2017-06-09T08:27:15.479Z,39968
2017-06-09T08:28:15.550Z,41312
2017-06-09T08:29:15.592Z,43200
2017-06-09T08:30:15.638Z,46240
2017-06-09T08:31:15.680Z,49440
2017-06-09T08:32:15.745Z,49568
2017-06-09T08:33:15.788Z,45248
2017-06-09T08:34:15.837Z,45024
2017-06-09T08:35:15.885Z,47424
2017-06-09T08:36:15.914Z,50944
2017-06-09T08:37:15.969Z,49216
2017-06-09T08:38:16.029Z,47232
2017-06-09T08:39:16.062Z,44640
2017-06-09T08:40:16.123Z,43712
2017-06-09T08:41:16.169Z,45024
2017-06-09T08:42:16.224Z,49664
2017-06-09T08:43:16.274Z,50848
2017-06-09T08:44:16.318Z,52288
2017-06-09T08:45:16.356Z,55328
2017-06-09T08:46:16.417Z,54784
2017-06-09T08:47:16.471Z,52192
2017-06-09T08:48:16.519Z,51648
2017-06-09T08:49:16.544Z,53088
2017-06-09T08:50:16.591Z,48544
2017-06-09T08:51:16.664Z,44896
2017-06-09T08:52:16.713Z,43296
2017-06-09T08:53:16.768Z,43008
2017-06-09T08:54:16.818Z,45472
2017-06-09T08:55:16.866Z,51264
2017-06-09T08:56:16.911Z,51584
2017-06-09T08:57:16.955Z,51584
2017-06-09T08:58:16.998Z,50400
2017-06-09T08:59:17.050Z,45504
2017-06-09T09:00:17.091Z,43456
2017-06-09T09:01:17.141Z,48992
2017-06-09T09:02:17.213Z,50624
2017-06-09T09:03:17.293Z,47360
2017-06-09T09:04:17.315Z,50624
2017-06-09T09:05:17.369Z,59008
2017-06-09T09:06:17.412Z,66400
2017-06-09T09:07:17.440Z,71584
2017-06-09T09:08:17.487Z,71040
2017-06-09T09:09:17.565Z,69344
2017-06-09T09:10:17.644Z,68832
2017-06-09T09:11:17.641Z,70304
2017-06-09T09:12:17.750Z,69216
2017-06-09T09:13:17.768Z,67680
2017-06-09T09:14:17.804Z,67744
2017-06-09T09:15:17.973Z,69600
2017-06-09T09:16:17.892Z,71424
2017-06-09T09:17:17.972Z,71552
2017-06-09T09:18:18.012Z,70208
2017-06-09T09:19:18.062Z,69312
2017-06-09T09:20:18.215Z,66912
2017-06-09T09:21:18.171Z,63360
2017-06-09T09:22:18.199Z,57536
2017-06-09T09:23:18.245Z,54080
2017-06-09T09:24:18.290Z,57504
2017-06-09T09:25:18.404Z,63008
2017-06-09T09:26:18.417Z,62144
2017-06-09T09:27:18.438Z,57952
2017-06-09T09:28:18.518Z,55456
2017-06-09T09:29:18.567Z,49600
2017-06-09T09:30:18.632Z,38240
2017-06-09T09:31:18.680Z,31776
2017-06-09T09:32:18.705Z,35552
2017-06-09T09:33:18.787Z,44896
2017-06-09T09:34:18.812Z,49728
2017-06-09T09:35:18.879Z,46592
2017-06-09T09:36:18.916Z,42784
2017-06-09T09:37:18.981Z,41248
2017-06-09T09:38:19.035Z,37504
2017-06-09T09:39:19.085Z,32448
2017-06-09T09:40:19.140Z,26368
2017-06-09T09:41:19.191Z,22112
2017-06-09T09:42:19.241Z,19360
2017-06-09T09:43:19.272Z,18528
2017-06-09T09:44:19.336Z,18464
2017-06-09T09:45:19.488Z,18400
2017-06-09T09:46:19.442Z,17856
2017-06-09T09:47:19.502Z,17184
2017-06-09T09:48:19.561Z,17024
2017-06-09T09:49:19.576Z,16864
2017-06-09T09:50:19.745Z,16768
2017-06-09T09:51:19.668Z,16576
2017-06-09T09:52:19.739Z,16448
2017-06-09T09:53:19.809Z,16320
2017-06-09T09:54:19.849Z,16192
2017-06-09T09:55:20.010Z,16064
2017-06-09T09:56:19.964Z,16000
2017-06-09T09:57:20.002Z,16032
2017-06-09T09:58:20.068Z,16096
2017-06-09T09:59:20.111Z,16064
2017-06-09T10:00:20.248Z,15936
2017-06-09T10:01:20.225Z,15776
2017-06-09T10:02:20.264Z,15680
2017-06-09T10:03:20.341Z,15680
2017-06-09T10:04:20.382Z,15520
2017-06-09T10:05:20.453Z,15584
2017-06-09T10:06:20.502Z,15584
2017-06-09T10:07:20.554Z,15520
2017-06-09T10:08:20.580Z,15360
2017-06-09T10:09:20.643Z,15424
2017-06-09T10:10:20.680Z,15456
2017-06-09T10:11:20.756Z,15424
2017-06-09T10:12:20.800Z,15392
2017-06-09T10:13:20.848Z,15264
2017-06-09T10:14:20.906Z,15104
2017-06-09T10:15:21.099Z,15104
2017-06-09T10:16:20.997Z,15200
2017-06-09T10:17:21.053Z,15136
2017-06-09T10:18:21.099Z,15232
2017-06-09T10:19:21.159Z,15264
2017-06-09T10:20:21.287Z,14944
2017-06-09T10:21:21.247Z,14304
2017-06-09T10:22:21.289Z,14432
2017-06-09T10:23:21.354Z,14560
2017-06-09T10:24:21.418Z,14816
2017-06-09T10:25:21.617Z,14816
2017-06-09T10:26:21.510Z,14880
2017-06-09T10:27:21.552Z,15168
2017-06-09T10:28:21.590Z,15712
2017-06-09T10:29:21.673Z,15552
2017-06-09T10:30:21.849Z,15264
2017-06-09T10:31:21.783Z,14912
2017-06-09T10:32:21.798Z,14688
2017-06-09T10:33:21.857Z,15008
2017-06-09T10:34:21.893Z,15200
2017-06-09T10:35:21.922Z,14624
2017-06-09T10:36:21.994Z,14080
2017-06-09T10:37:22.042Z,13568
2017-06-09T10:38:22.048Z,12740
2017-06-09T10:39:22.125Z,13440
2017-06-09T10:40:22.182Z,12876
2017-06-09T10:41:22.196Z,12464
2017-06-09T10:42:22.251Z,12284
2017-06-09T10:43:22.295Z,12740
2017-06-09T10:44:22.389Z,12448
2017-06-09T10:45:22.374Z,12476
2017-06-09T10:46:22.482Z,13368
2017-06-09T10:47:22.491Z,13500
2017-06-09T10:48:22.513Z,13224
2017-06-09T10:49:22.576Z,14816
2017-06-09T10:50:22.634Z,13728
2017-06-09T10:51:22.676Z,11372
2017-06-09T10:52:22.728Z,9288
2017-06-09T10:53:22.742Z,8664
2017-06-09T10:54:22.812Z,8256
2017-06-09T10:55:22.860Z,8252
2017-06-09T10:56:22.901Z,8388
2017-06-09T10:57:22.952Z,8324
2017-06-09T10:58:22.975Z,7912
2017-06-09T10:59:23.036Z,7484
2017-06-09T11:00:23.079Z,7260
2017-06-09T11:01:23.095Z,6932
2017-06-09T11:02:23.176Z,6716
2017-06-09T11:03:23.211Z,6448
2017-06-09T11:04:23.236Z,6128
2017-06-09T11:05:23.311Z,6104
2017-06-09T11:06:23.339Z,5908
2017-06-09T11:07:23.379Z,5800
2017-06-09T11:08:23.428Z,5628
2017-06-09T11:09:23.454Z,5524
2017-06-09T11:10:23.515Z,5452
2017-06-09T11:11:23.552Z,5600
2017-06-09T11:12:23.581Z,5712
2017-06-09T11:13:23.625Z,6052
2017-06-09T11:14:23.658Z,5772
2017-06-09T11:15:23.735Z,5900
2017-06-09T11:16:23.774Z,5732
2017-06-09T11:17:23.805Z,5244
2017-06-09T11:18:23.825Z,4988
2017-06-09T11:19:23.894Z,4748
2017-06-09T11:20:23.931Z,4576
2017-06-09T11:21:23.987Z,4452
2017-06-09T11:22:24.027Z,4388
2017-06-09T11:23:24.076Z,4308
2017-06-09T11:24:24.116Z,4216
2017-06-09T11:25:24.147Z,4140
2017-06-09T11:26:24.198Z,4044
2017-06-09T11:27:24.278Z,3900
2017-06-09T11:28:24.262Z,3616
2017-06-09T11:29:24.307Z,3400
2017-06-09T11:30:24.461Z,3368
2017-06-09T11:31:24.380Z,3484
2017-06-09T11:32:24.440Z,3524
2017-06-09T11:33:24.482Z,3524
2017-06-09T11:34:24.527Z,3496
2017-06-09T11:35:24.664Z,3452
2017-06-09T11:36:24.585Z,3496
2017-06-09T11:37:24.654Z,3580
2017-06-09T11:38:24.678Z,3516
2017-06-09T11:39:24.718Z,3364
2017-06-09T11:40:24.863Z,3224
2017-06-09T11:41:24.823Z,3048
2017-06-09T11:42:24.854Z,2948
2017-06-09T11:43:24.894Z,2860
2017-06-09T11:44:24.942Z,2776
2017-06-09T11:45:25.078Z,2736
2017-06-09T11:46:25.044Z,2728
2017-06-09T11:47:25.075Z,2704
2017-06-09T11:48:25.109Z,2684
2017-06-09T11:49:25.175Z,2676
2017-06-09T11:50:25.298Z,2656
2017-06-09T11:51:25.242Z,2632
2017-06-09T11:52:25.256Z,2628
2017-06-09T11:53:25.300Z,2596
2017-06-09T11:54:25.332Z,2644
2017-06-09T11:55:25.397Z,2612
2017-06-09T11:56:25.442Z,2644
2017-06-09T11:57:25.471Z,2632
2017-06-09T11:58:25.511Z,2696
2017-06-09T11:59:25.564Z,2764
2017-06-09T12:00:25.606Z,2660
2017-06-09T12:01:25.650Z,2692
2017-06-09T12:02:25.691Z,2716
2017-06-09T12:03:25.723Z,2820
2017-06-09T12:04:25.768Z,2956
2017-06-09T12:05:25.822Z,3076
2017-06-09T12:06:25.825Z,3284
2017-06-09T12:07:25.889Z,3504
2017-06-09T12:08:25.922Z,3764
2017-06-09T12:09:25.970Z,3868
2017-06-09T12:10:26.021Z,3872
2017-06-09T12:11:26.046Z,4084
2017-06-09T12:12:26.092Z,4312
2017-06-09T12:13:26.128Z,4472
2017-06-09T12:14:26.174Z,4540
2017-06-09T12:15:26.214Z,4592
2017-06-09T12:16:26.274Z,4528
2017-06-09T12:17:26.305Z,4472
2017-06-09T12:18:26.341Z,4360
2017-06-09T12:19:26.379Z,4244
2017-06-09T12:20:26.431Z,4200
2017-06-09T12:21:26.474Z,4124
2017-06-09T12:22:26.524Z,4048
2017-06-09T12:23:26.545Z,4044
2017-06-09T12:24:26.577Z,4116
2017-06-09T12:25:26.592Z,4232
2017-06-09T12:26:26.671Z,4200
2017-06-09T12:27:26.699Z,4272
2017-06-09T12:28:26.754Z,4376
2017-06-09T12:29:26.787Z,4532
2017-06-09T12:30:26.829Z,4704
2017-06-09T12:31:26.867Z,4824
2017-06-09T12:32:26.926Z,4832
2017-06-09T12:33:26.961Z,4836
2017-06-09T12:34:27.001Z,4832
2017-06-09T12:35:27.036Z,4828
2017-06-09T12:36:27.084Z,4764
2017-06-09T12:37:27.121Z,4732
2017-06-09T12:38:27.162Z,4600
2017-06-09T12:39:27.185Z,4404
2017-06-09T12:40:27.576Z,4248
2017-06-09T12:41:27.265Z,4432
2017-06-09T12:42:27.324Z,4408
2017-06-09T12:43:27.375Z,4432
2017-06-09T12:44:27.409Z,4488
2017-06-09T12:45:27.608Z,4528
2017-06-09T12:46:27.475Z,4608
2017-06-09T12:47:27.543Z,4704
2017-06-09T12:48:27.575Z,4912
2017-06-09T12:49:27.612Z,5196
2017-06-09T12:50:27.660Z,5400
2017-06-09T12:51:27.720Z,5372
2017-06-09T12:52:27.737Z,5376
2017-06-09T12:53:27.782Z,5376
2017-06-09T12:54:27.811Z,5452
2017-06-09T12:55:27.884Z,5524
2017-06-09T12:56:27.891Z,5524
2017-06-09T12:57:27.928Z,5532
2017-06-09T12:58:27.982Z,5456
2017-06-09T12:59:28.038Z,5544
2017-06-09T13:00:28.049Z,5560
2017-06-09T13:01:28.112Z,5544
2017-06-09T13:02:28.146Z,5412
2017-06-09T13:03:28.181Z,5268
2017-06-09T13:04:28.240Z,5108
2017-06-09T13:05:28.308Z,5340
2017-06-09T13:06:28.290Z,5736
2017-06-09T13:07:28.349Z,6092
2017-06-09T13:08:28.378Z,6220
2017-06-09T13:09:28.411Z,6140
2017-06-09T13:10:28.499Z,5964
2017-06-09T13:11:28.518Z,5792
2017-06-09T13:12:28.529Z,5900
2017-06-09T13:13:28.568Z,6132
2017-06-09T13:14:28.633Z,6236
2017-06-09T13:15:28.690Z,6144
2017-06-09T13:16:28.741Z,6060
2017-06-09T13:17:28.762Z,5972
2017-06-09T13:18:28.777Z,5936
2017-06-09T13:19:28.862Z,5840
2017-06-09T13:20:28.892Z,5728
2017-06-09T13:21:28.941Z,5612
2017-06-09T13:22:29.007Z,5640
2017-06-09T13:23:29.009Z,5640
2017-06-09T13:24:29.036Z,5544
2017-06-09T13:25:29.079Z,5480
2017-06-09T13:26:29.131Z,5368